Jersey City, Wisconsin
Current Conditions -  °F | °C
As of 10:15 PM on Friday 19 Dec 2014 (Local Time) from KTKV Reporting Station
Overcast Overcast  
Wind Chill: 22°   Ceiling: 900
Heat Index: 22°   Visibility: 10mi
Dew Point: 20°   Wind: 0mph
Humidity: 91%   Direction: NA
Pressure: 30.2"   Gusts: NA
Location:  45.5047°N, 89.7732°W
Report Text: KTKV 200415Z AUTO 00000KT 10SM OVC009 M05/M07 A3020 RMK AO2 T10551068
Loading
Personal Weather Stations






























Interactive Weather Map New forecast layout! Learn more

10-Day Weather Forecast

Advertisements
Track Severe Weather on mobile